createdAt,value
2023-01-29T03:10:16.415Z,15.10
2023-01-29T03:12:48.507Z,14.68
2023-01-29T03:15:20.574Z,13.93
2023-01-29T03:18:07.298Z,14.50
2023-01-29T03:20:39.888Z,14.13
2023-01-29T03:23:14.204Z,13.32
2023-01-29T03:25:44.721Z,14.13
2023-01-29T03:28:15.872Z,13.63
2023-01-29T03:30:50.480Z,14.25
2023-01-29T03:33:43.648Z,14.30
2023-01-29T03:36:16.612Z,14.95
2023-01-29T03:38:44.078Z,13.73
2023-01-29T03:41:20.080Z,14.52
2023-01-29T03:43:55.096Z,14.30
2023-01-29T03:46:27.483Z,14.10
2023-01-29T03:49:00.571Z,15.05
2023-01-29T03:51:33.333Z,13.18
2023-01-29T03:54:08.698Z,13.77
2023-01-29T04:05:13.611Z,13.50
2023-01-29T04:07:57.368Z,14.63
2023-01-29T04:10:27.764Z,15.65
2023-01-29T05:54:30.590Z,14.48
2023-01-29T05:56:57.615Z,14.32
2023-01-29T05:59:24.651Z,15.07
2023-01-29T06:11:10.108Z,14.95
2023-01-29T06:25:24.622Z,13.88
2023-01-29T08:08:20.898Z,15.60
2023-01-29T08:10:50.283Z,15.25
2023-01-29T08:13:20.377Z,16.27
2023-01-29T08:15:47.535Z,16.40
2023-01-29T08:18:15.209Z,15.90
2023-01-29T08:20:42.104Z,15.07
2023-01-29T08:23:15.894Z,13.75
2023-01-29T08:25:44.409Z,15.45
2023-01-29T08:28:12.116Z,15.75
2023-01-29T08:30:39.177Z,17.52
2023-01-29T08:33:05.775Z,15.73
2023-01-29T08:35:32.912Z,16.33
2023-01-29T08:38:01.868Z,16.67
2023-01-29T08:40:31.816Z,17.05
2023-01-29T08:43:01.986Z,15.02
2023-01-29T08:45:29.740Z,16.17
2023-01-29T08:47:56.640Z,15.88
2023-01-29T08:50:23.428Z,15.82
2023-01-29T08:52:50.054Z,16.40
2023-01-29T08:55:17.167Z,16.63
2023-01-29T08:57:45.471Z,15.65
2023-01-29T09:00:13.120Z,15.75
2023-01-29T09:02:39.763Z,15.07
2023-01-29T09:05:07.422Z,15.45
2023-01-29T09:07:34.045Z,15.77
2023-01-29T09:10:01.330Z,16.85
2023-01-29T09:12:28.173Z,15.35
2023-01-29T09:14:56.334Z,16.30
2023-01-29T09:17:22.858Z,15.85
2023-01-29T09:19:49.378Z,16.95
2023-01-29T09:22:15.936Z,15.73
2023-01-29T09:24:42.484Z,16.35
2023-01-29T09:27:09.165Z,16.60
2023-01-29T09:29:36.137Z,16.15
2023-01-29T09:32:05.435Z,15.40
2023-01-29T09:34:33.725Z,16.30
2023-01-29T09:37:00.309Z,16.27
2023-01-29T09:39:26.944Z,17.90
2023-01-29T09:41:59.752Z,18.23
2023-01-29T09:44:42.659Z,17.33
2023-01-29T09:47:14.428Z,17.10
2023-01-29T09:49:45.866Z,17.52
2023-01-29T09:52:18.975Z,18.05
2023-01-29T09:54:54.629Z,19.95
2023-01-29T09:57:25.847Z,39.67
2023-01-29T09:59:53.983Z,28.65
2023-01-29T10:02:42.973Z,38.47
2023-01-29T10:05:24.552Z,32.80
2023-01-29T10:08:13.240Z,30.30
2023-01-29T10:10:49.182Z,50.40
2023-01-29T10:13:27.231Z,26.67
2023-01-29T10:16:08.314Z,21.77
2023-01-29T10:19:10.524Z,20.42
2023-01-29T10:21:56.921Z,21.30
2023-01-29T10:24:29.673Z,21.08
2023-01-29T10:26:57.452Z,21.25
2023-01-29T10:29:27.243Z,20.05
2023-01-29T10:31:56.991Z,19.98
2023-01-29T10:34:31.355Z,19.35
2023-01-29T10:36:59.611Z,20.67
2023-01-29T10:39:29.633Z,19.40
2023-01-29T10:42:13.194Z,19.88
2023-01-29T10:44:53.510Z,18.88
2023-01-29T10:47:37.852Z,20.05
2023-01-29T10:50:17.953Z,19.85
2023-01-29T10:53:01.394Z,19.10
2023-01-29T10:55:41.460Z,17.77
2023-01-29T10:58:19.224Z,20.77
2023-01-29T11:00:46.105Z,18.02
2023-01-29T11:03:26.924Z,17.58
2023-01-29T11:06:01.760Z,16.73
2023-01-29T11:08:37.605Z,14.35
2023-01-29T11:11:08.104Z,15.57
2023-01-29T11:13:40.305Z,14.48
2023-01-29T11:16:09.321Z,12.13
2023-01-29T11:18:57.183Z,11.65
2023-01-29T11:21:25.130Z,12.15
2023-01-29T11:24:06.116Z,12.82
2023-01-29T11:26:37.746Z,13.18
2023-01-29T11:29:04.418Z,12.68
2023-01-29T11:31:37.492Z,11.75
2023-01-29T11:34:06.442Z,11.65
2023-01-29T11:36:36.044Z,12.48
2023-01-29T11:39:18.139Z,11.52
2023-01-29T11:41:49.417Z,12.23
2023-01-29T11:44:21.309Z,11.88
2023-01-29T11:46:49.565Z,11.45
2023-01-29T11:49:32.846Z,11.27
2023-01-29T11:52:02.088Z,12.65
2023-01-29T11:54:34.362Z,12.30
2023-01-29T11:57:02.407Z,11.95
2023-01-29T11:59:38.047Z,12.00
2023-01-29T12:02:19.121Z,11.52
2023-01-29T12:04:46.571Z,12.82
2023-01-29T12:07:16.140Z,11.70
2023-01-29T12:09:52.243Z,11.68
2023-01-29T12:12:28.798Z,11.95
2023-01-29T12:15:16.838Z,11.82
2023-01-29T12:17:50.821Z,11.73
2023-01-29T12:20:24.123Z,11.10
2023-01-29T12:22:59.137Z,10.90
2023-01-29T12:25:41.594Z,12.55
2023-01-29T12:28:19.215Z,11.30
2023-01-29T12:30:55.556Z,12.02
2023-01-29T12:33:35.326Z,12.57
2023-01-29T12:36:10.895Z,12.20
2023-01-29T12:38:37.793Z,13.25
2023-01-29T12:41:13.829Z,12.75
2023-01-29T12:43:46.000Z,12.07
2023-01-29T12:46:21.600Z,14.32
2023-01-29T12:48:50.381Z,13.75
2023-01-29T12:51:19.356Z,12.80
2023-01-29T12:53:54.026Z,14.95
2023-01-29T12:56:29.072Z,13.90
2023-01-29T12:58:58.844Z,13.73
2023-01-29T13:01:29.580Z,13.70
2023-01-29T13:04:01.654Z,13.07
2023-01-29T13:06:33.850Z,14.43
2023-01-29T13:09:04.590Z,13.13
2023-01-29T13:11:38.211Z,13.18
2023-01-29T13:14:13.968Z,13.55
2023-01-29T13:16:45.283Z,13.00
2023-01-29T13:19:21.892Z,13.93
2023-01-29T13:21:48.826Z,13.05
2023-01-29T13:24:18.462Z,14.73
2023-01-29T13:26:48.586Z,13.40
2023-01-29T13:29:23.914Z,14.43
2023-01-29T13:31:54.503Z,14.20
2023-01-29T13:34:25.584Z,13.75
2023-01-29T13:36:57.354Z,12.67
2023-01-29T13:39:30.453Z,13.60
2023-01-29T13:42:03.887Z,13.57
2023-01-29T13:44:35.560Z,13.77
2023-01-29T13:47:04.446Z,13.82
2023-01-29T13:49:39.254Z,13.40
2023-01-29T13:52:30.910Z,13.27
2023-01-29T13:55:00.770Z,14.25
2023-01-29T13:57:50.701Z,12.90
2023-01-29T14:00:57.017Z,12.55
2023-01-29T14:04:04.249Z,12.20
2023-01-29T14:06:50.445Z,11.82
2023-01-29T14:09:34.732Z,13.05
2023-01-29T14:12:03.682Z,15.07
2023-01-29T14:15:01.566Z,14.48
2023-01-29T14:17:30.180Z,14.05
2023-01-29T14:20:02.226Z,13.07
2023-01-29T14:22:30.682Z,9.15
2023-01-29T14:25:03.977Z,10.85
2023-01-29T14:27:31.873Z,9.32
2023-01-29T14:30:07.462Z,9.52
2023-01-29T14:32:34.371Z,10.02
2023-01-29T14:35:03.585Z,8.85
2023-01-29T14:37:34.149Z,8.73
2023-01-29T14:40:19.437Z,8.25
2023-01-29T14:42:57.177Z,8.20
2023-01-29T14:45:28.843Z,7.43
2023-01-29T14:47:58.246Z,9.20
2023-01-29T14:50:43.561Z,9.20
2023-01-29T14:53:14.485Z,8.68
2023-01-29T14:55:44.310Z,8.52
2023-01-29T14:58:14.619Z,8.45
2023-01-29T15:00:45.030Z,8.80
2023-01-29T15:03:20.249Z,10.30
2023-01-29T15:05:49.313Z,10.15
2023-01-29T15:08:23.102Z,10.20
2023-01-29T15:10:54.332Z,10.23
2023-01-29T15:13:28.447Z,9.05
2023-01-29T15:16:03.907Z,11.05
2023-01-29T15:18:34.992Z,9.40
2023-01-29T15:21:04.727Z,9.10
2023-01-29T15:23:33.764Z,8.77
2023-01-29T15:26:04.342Z,9.35
2023-01-29T15:28:32.833Z,10.40
2023-01-29T15:31:03.566Z,10.32
2023-01-29T15:33:31.895Z,10.60
2023-01-29T15:36:08.567Z,9.57
2023-01-29T15:38:35.640Z,10.02
2023-01-29T15:41:14.799Z,9.27
2023-01-29T15:43:44.527Z,10.07
2023-01-29T15:46:20.585Z,9.95
2023-01-29T15:48:48.969Z,8.77
2023-01-29T15:51:17.674Z,8.70
2023-01-29T15:53:50.129Z,8.93
2023-01-29T15:56:21.623Z,8.48
2023-01-29T15:58:49.915Z,8.90
2023-01-29T16:01:18.197Z,9.35
2023-01-29T16:03:46.155Z,9.52
2023-01-29T16:06:12.979Z,9.40
2023-01-29T16:08:41.963Z,10.80
2023-01-29T16:11:11.320Z,9.20
2023-01-29T16:13:41.348Z,9.27
2023-01-29T16:16:24.069Z,10.55
2023-01-29T16:18:59.902Z,10.80
2023-01-29T16:21:30.164Z,10.85
2023-01-29T16:23:59.130Z,17.20
2023-01-29T16:26:28.265Z,11.18
2023-01-29T16:28:55.489Z,11.02
2023-01-29T16:31:27.584Z,10.00
2023-01-29T16:33:57.025Z,11.23
2023-01-29T16:36:26.710Z,11.05
2023-01-29T16:38:55.349Z,11.68
2023-01-29T16:41:30.371Z,11.55
2023-01-29T16:43:58.980Z,11.35
2023-01-29T16:46:32.777Z,11.10
2023-01-29T16:49:00.124Z,11.63
2023-01-29T16:51:29.762Z,11.95
2023-01-29T16:53:59.693Z,11.55
2023-01-29T16:56:32.187Z,10.35
2023-01-29T16:59:00.101Z,12.00
2023-01-29T17:01:30.120Z,13.02
2023-01-29T17:04:02.800Z,15.65
2023-01-29T17:06:32.373Z,15.88
2023-01-29T17:08:59.552Z,19.42
2023-01-29T17:11:31.832Z,16.17
2023-01-29T17:13:59.240Z,18.65
2023-01-29T17:16:29.567Z,17.23
2023-01-29T17:18:56.363Z,17.05
2023-01-29T17:21:23.428Z,12.90
2023-01-29T17:23:50.695Z,12.45
2023-01-29T17:26:18.398Z,12.45
2023-01-29T17:28:46.365Z,10.98
2023-01-29T17:31:13.231Z,10.88
2023-01-29T17:33:43.262Z,11.15
2023-01-29T17:36:11.350Z,12.05
2023-01-29T17:38:38.045Z,11.98
2023-01-29T17:41:08.064Z,12.18
2023-01-29T17:43:34.932Z,12.20
2023-01-29T17:46:01.581Z,17.80
2023-01-29T17:48:29.704Z,15.48
2023-01-29T17:51:00.500Z,20.52
2023-01-29T17:53:43.328Z,13.88
2023-01-29T17:56:15.527Z,13.82
2023-01-29T17:58:42.153Z,22.35
2023-01-29T18:01:08.667Z,14.70
2023-01-29T18:03:35.297Z,14.45
2023-01-29T18:06:03.449Z,12.10
2023-01-29T18:08:33.676Z,12.80
2023-01-29T18:11:00.926Z,10.98
2023-01-29T18:13:27.480Z,11.40
2023-01-29T18:15:54.193Z,11.48
2023-01-29T18:18:22.993Z,12.13
2023-01-29T18:20:50.303Z,11.48
2023-01-29T18:23:18.227Z,10.75
2023-01-29T18:25:45.338Z,11.20
2023-01-29T18:28:14.479Z,11.63
2023-01-29T18:30:41.351Z,11.80
2023-01-29T18:33:07.908Z,12.20
2023-01-29T18:35:34.498Z,12.65
2023-01-29T18:38:01.062Z,12.43
2023-01-29T18:40:29.016Z,11.68
2023-01-29T18:42:55.521Z,12.27
2023-01-29T18:45:22.021Z,14.85
2023-01-29T18:47:48.654Z,13.60
2023-01-29T18:50:15.669Z,13.00
2023-01-29T18:52:43.704Z,12.65
2023-01-29T18:55:10.557Z,12.13
2023-01-29T18:58:27.446Z,14.18
2023-01-29T19:00:25.120Z,12.75
2023-01-29T19:02:51.624Z,11.38
2023-01-29T19:05:18.814Z,11.18
2023-01-29T19:07:45.671Z,11.00
2023-01-29T19:10:12.356Z,10.90
2023-01-29T19:12:40.287Z,11.98
2023-01-29T19:15:08.157Z,10.27
2023-01-29T19:17:34.765Z,12.40
2023-01-29T19:20:01.491Z,11.98
2023-01-29T19:22:28.162Z,14.93
2023-01-29T19:24:54.823Z,14.32
2023-01-29T19:27:21.324Z,13.25
2023-01-29T19:29:49.314Z,12.90
2023-01-29T19:32:15.827Z,14.95
2023-01-29T19:34:42.488Z,12.93
2023-01-29T19:37:09.048Z,11.90
2023-01-29T19:39:35.717Z,12.43
2023-01-29T19:42:02.345Z,12.45
2023-01-29T19:44:28.979Z,11.95
2023-01-29T19:46:56.849Z,12.65
2023-01-29T19:49:25.083Z,13.02
2023-01-29T19:51:51.719Z,11.30
2023-01-29T19:54:18.293Z,12.38
2023-01-29T19:56:44.777Z,11.45
2023-01-29T19:59:11.637Z,11.30
2023-01-29T20:01:38.254Z,11.30
2023-01-29T20:04:06.227Z,12.43
2023-01-29T20:06:32.774Z,11.40
2023-01-29T20:08:59.415Z,11.38
2023-01-29T20:11:25.903Z,11.65
2023-01-29T20:13:53.258Z,10.73
2023-01-29T20:16:24.762Z,11.68
2023-01-29T20:18:53.018Z,13.48
2023-01-29T20:21:21.237Z,12.93
2023-01-29T20:23:49.498Z,10.30
2023-01-29T20:26:16.718Z,11.23
2023-01-29T20:28:45.349Z,11.80
2023-01-29T20:31:11.898Z,13.38
2023-01-29T20:33:39.658Z,12.40
2023-01-29T20:36:08.323Z,12.15
2023-01-29T20:38:36.576Z,10.73
2023-01-29T20:41:04.876Z,11.25
2023-01-29T20:43:31.590Z,10.50
2023-01-29T20:45:58.527Z,10.02
2023-01-29T20:48:25.180Z,11.13
2023-01-29T20:50:51.785Z,10.25
2023-01-29T20:53:18.458Z,12.75
2023-01-29T20:55:46.360Z,11.00
2023-01-29T20:58:13.092Z,11.05
2023-01-29T21:00:39.763Z,11.90
2023-01-29T21:03:06.334Z,10.38
2023-01-29T21:05:32.877Z,12.25
2023-01-29T21:07:59.484Z,11.98
2023-01-29T21:10:26.224Z,10.70
2023-01-29T21:12:54.165Z,11.05
2023-01-29T21:15:20.865Z,12.10
2023-01-29T21:17:47.508Z,10.55
2023-01-29T21:20:14.230Z,11.57
2023-01-29T21:22:40.857Z,12.30
2023-01-29T21:25:08.403Z,12.40
2023-01-29T21:27:35.110Z,11.23
2023-01-29T21:30:03.491Z,11.13
2023-01-29T21:32:30.094Z,12.15
2023-01-29T21:34:56.617Z,11.00
2023-01-29T21:37:23.245Z,12.77
2023-01-29T21:39:49.791Z,10.80
2023-01-29T21:42:16.361Z,11.68
2023-01-29T21:44:42.926Z,13.05
2023-01-29T21:47:10.891Z,14.48
2023-01-29T21:49:38.637Z,11.93
2023-01-29T21:52:05.261Z,11.15
2023-01-29T21:54:31.844Z,11.05
2023-01-29T21:56:58.479Z,12.25
2023-01-29T21:59:24.996Z,13.07
2023-01-29T22:01:51.704Z,11.20
2023-01-29T22:04:19.571Z,12.07
2023-01-29T22:06:46.171Z,10.68
2023-01-29T22:09:12.915Z,10.68
2023-01-29T22:11:40.649Z,11.73
2023-01-29T22:14:07.480Z,10.70
2023-01-29T22:16:34.410Z,9.50
2023-01-29T22:19:01.074Z,10.80
2023-01-29T22:21:29.175Z,10.68
2023-01-29T22:23:55.921Z,10.90
2023-01-29T22:26:22.697Z,10.27
2023-01-29T22:28:49.221Z,10.95
2023-01-29T22:31:15.800Z,11.13
2023-01-29T22:33:43.232Z,10.40
2023-01-29T22:36:10.040Z,10.73
2023-01-29T22:38:37.973Z,11.10
2023-01-29T22:41:05.021Z,10.23
2023-01-29T22:43:31.685Z,10.93
2023-01-29T22:45:58.288Z,11.77
2023-01-29T22:48:24.993Z,9.82
2023-01-29T22:50:55.989Z,10.57
2023-01-29T22:53:22.588Z,10.30
2023-01-29T22:55:55.399Z,9.02
2023-01-29T22:58:22.075Z,10.23
2023-01-29T23:00:50.111Z,9.68
2023-01-29T23:03:16.772Z,10.30
2023-01-29T23:05:43.287Z,9.68
2023-01-29T23:08:10.167Z,10.20
2023-01-29T23:10:37.357Z,8.77
2023-01-29T23:13:05.534Z,9.30
2023-01-29T23:15:32.309Z,8.70
2023-01-29T23:17:58.904Z,10.00
2023-01-29T23:20:25.460Z,9.63
2023-01-29T23:22:52.305Z,9.70
2023-01-29T23:25:18.844Z,9.55
2023-01-29T23:27:45.394Z,9.55
2023-01-29T23:30:14.223Z,9.85
2023-01-29T23:32:41.167Z,9.02
2023-01-29T23:35:08.462Z,9.20
2023-01-29T23:37:35.027Z,8.88
2023-01-29T23:40:01.609Z,10.10
2023-01-29T23:42:28.465Z,8.50
2023-01-29T23:44:55.017Z,8.73
2023-01-29T23:47:22.929Z,9.25
2023-01-29T23:49:49.436Z,7.95
2023-01-29T23:52:16.099Z,8.90
2023-01-29T23:54:42.604Z,8.40
2023-01-29T23:57:09.229Z,9.07
2023-01-29T23:59:35.777Z,9.88
